createdAt,value
2018-03-15T00:02:01.272Z,98930.12
2018-03-15T00:04:35.591Z,98929.54
2018-03-15T00:07:04.757Z,98928.42
2018-03-15T00:09:34.418Z,98924.56
2018-03-15T00:12:03.843Z,98925.41
2018-03-15T00:14:33.219Z,98934.91
2018-03-15T00:17:02.649Z,98932.94
2018-03-15T00:19:32.611Z,98928.08
2018-03-15T00:22:02.198Z,98928.80
2018-03-15T00:24:31.117Z,98928.95
2018-03-15T00:27:00.271Z,98927.94
2018-03-15T00:29:30.049Z,98931.59
2018-03-15T00:31:59.260Z,98934.34
2018-03-15T00:34:28.882Z,98938.57
2018-03-15T00:36:58.140Z,98951.36
2018-03-15T00:39:27.403Z,98954.12
2018-03-15T00:41:56.839Z,98966.20
2018-03-15T00:44:26.476Z,98969.23
2018-03-15T00:46:55.710Z,98973.88
2018-03-15T00:49:24.939Z,98987.45
2018-03-15T00:51:54.129Z,98981.88
2018-03-15T00:54:25.455Z,98988.14
2018-03-15T00:56:54.879Z,98993.08
2018-03-15T00:59:24.301Z,98997.25
2018-03-15T01:01:53.521Z,99000.98
2018-03-15T01:04:23.047Z,99004.03
2018-03-15T01:06:52.439Z,99013.70
2018-03-15T01:09:21.586Z,99017.55
2018-03-15T01:11:50.782Z,99010.37
2018-03-15T01:14:19.818Z,99022.48
2018-03-15T01:16:49.623Z,99023.00
2018-03-15T01:19:19.168Z,99031.08
2018-03-15T01:21:48.451Z,99028.92
2018-03-15T01:24:17.572Z,99023.28
2018-03-15T01:26:48.594Z,99026.67
2018-03-15T01:29:17.951Z,99021.59
2018-03-15T01:31:47.395Z,99030.21
2018-03-15T01:34:16.699Z,99034.48
2018-03-15T01:36:45.967Z,99041.83
2018-03-15T01:39:15.542Z,99036.36
2018-03-15T01:41:44.764Z,99038.10
2018-03-15T01:44:14.106Z,99042.76
2018-03-15T01:46:43.444Z,99046.47
2018-03-15T01:49:12.550Z,99054.48
2018-03-15T01:51:41.498Z,99056.42
2018-03-15T01:54:10.617Z,99052.37
2018-03-15T01:56:39.654Z,99056.94
2018-03-15T01:59:09.026Z,99057.56
2018-03-15T02:01:38.483Z,99057.19
2018-03-15T02:04:07.561Z,99063.61
2018-03-15T02:06:36.787Z,99066.37
2018-03-15T02:09:06.558Z,99062.94
2018-03-15T02:11:35.867Z,99073.57
2018-03-15T02:14:05.147Z,99072.09
2018-03-15T02:16:34.628Z,99080.36
2018-03-15T02:19:04.847Z,99092.08
2018-03-15T02:21:33.737Z,99087.08
2018-03-15T02:24:03.051Z,99086.17
2018-03-15T02:26:32.493Z,99082.64
2018-03-15T02:29:02.004Z,99082.92
2018-03-15T02:33:54.002Z,99083.28
2018-03-15T02:36:23.757Z,99081.26
2018-03-15T02:38:53.075Z,99088.02
2018-03-15T02:41:22.271Z,99093.73
2018-03-15T02:43:51.360Z,99091.84
2018-03-15T02:46:20.912Z,99096.45
2018-03-15T02:48:50.511Z,99111.38
2018-03-15T02:51:20.320Z,99124.88
2018-03-15T02:53:49.791Z,99115.80
2018-03-15T02:56:19.041Z,99117.30
2018-03-15T02:58:48.342Z,99124.14
2018-03-15T03:01:18.171Z,99132.87
2018-03-15T03:03:47.523Z,99142.12
2018-03-15T03:06:16.954Z,99157.76
2018-03-15T03:08:46.349Z,99172.39
2018-03-15T03:11:15.605Z,99152.79
2018-03-15T03:13:44.970Z,99145.56
2018-03-15T03:16:14.328Z,99142.81
2018-03-15T03:18:43.473Z,99141.02
2018-03-15T03:21:12.663Z,99140.53
2018-03-15T03:23:41.984Z,99134.59
2018-03-15T03:26:10.840Z,99132.43
2018-03-15T03:28:40.162Z,99138.29
2018-03-15T03:31:10.638Z,99138.97
2018-03-15T03:33:39.679Z,99150.00
2018-03-15T03:36:09.049Z,99149.38
2018-03-15T03:38:38.366Z,99151.86
2018-03-15T03:41:07.545Z,99161.09
2018-03-15T03:43:36.472Z,99158.07
2018-03-15T03:46:06.030Z,99163.53
2018-03-15T03:48:35.138Z,99162.69
2018-03-15T03:51:04.162Z,99165.55
2018-03-15T03:53:33.281Z,99159.79
2018-03-15T03:56:02.190Z,99173.32
2018-03-15T03:58:31.112Z,99172.04
2018-03-15T04:01:00.283Z,99177.69
2018-03-15T04:03:29.859Z,99179.19
2018-03-15T04:05:59.482Z,99177.20
2018-03-15T04:08:28.549Z,99177.03
2018-03-15T04:10:57.835Z,99177.13
2018-03-15T04:13:27.359Z,99191.25
2018-03-15T04:15:57.341Z,99195.84
2018-03-15T04:18:26.953Z,99198.94
2018-03-15T04:20:56.144Z,99211.16
2018-03-15T04:23:25.457Z,99210.78
2018-03-15T04:25:54.953Z,99211.30
2018-03-15T04:28:24.203Z,99205.85
2018-03-15T04:30:53.248Z,99209.86
2018-03-15T04:33:23.299Z,99216.53
2018-03-15T04:35:52.702Z,99209.08
2018-03-15T04:38:22.216Z,99215.37
2018-03-15T04:40:51.585Z,99210.07
2018-03-15T04:43:20.912Z,99213.58
2018-03-15T04:45:50.057Z,99213.18
2018-03-15T04:48:19.170Z,99198.31
2018-03-15T04:50:48.680Z,99209.61
2018-03-15T04:53:17.990Z,99213.33
2018-03-15T04:55:47.170Z,99209.59
2018-03-15T04:58:16.641Z,99214.33
2018-03-15T05:00:46.049Z,99218.81
2018-03-15T05:03:15.203Z,99218.72
2018-03-15T05:05:44.481Z,99209.47
2018-03-15T05:08:14.038Z,99214.55
2018-03-15T05:10:43.232Z,99216.14
2018-03-15T05:13:12.717Z,99208.91
2018-03-15T05:15:41.930Z,99218.46
2018-03-15T05:18:11.304Z,99216.03
2018-03-15T05:20:40.580Z,99208.92
2018-03-15T05:23:09.877Z,99210.11
2018-03-15T05:25:39.176Z,99214.23
2018-03-15T05:28:08.516Z,99210.47
2018-03-15T05:30:37.681Z,99207.60
2018-03-15T05:33:07.092Z,99205.37
2018-03-15T05:35:36.650Z,99205.65
2018-03-15T05:38:05.819Z,99198.38
2018-03-15T05:40:35.190Z,99193.36
2018-03-15T05:43:04.691Z,99198.68
2018-03-15T05:45:33.938Z,99193.05
2018-03-15T05:48:03.287Z,99183.52
2018-03-15T05:50:33.018Z,99176.17
2018-03-15T05:53:02.076Z,99183.77
2018-03-15T05:55:31.066Z,99181.04
2018-03-15T05:58:00.278Z,99182.26
2018-03-15T06:00:29.810Z,99171.75
2018-03-15T06:02:59.123Z,99170.59
2018-03-15T06:05:28.709Z,99169.23
2018-03-15T06:07:58.110Z,99167.23
2018-03-15T06:10:27.491Z,99157.05
2018-03-15T06:12:56.834Z,99161.39
2018-03-15T06:15:26.307Z,99154.55
2018-03-15T06:17:55.420Z,99160.03
2018-03-15T06:20:24.493Z,99152.34
2018-03-15T06:22:53.709Z,99143.57
2018-03-15T06:25:23.128Z,99149.73
2018-03-15T06:27:52.311Z,99142.48
2018-03-15T07:03:53.901Z,99067.87
2018-03-15T07:06:23.059Z,99064.23
2018-03-15T07:08:52.079Z,99068.08
2018-03-15T07:11:21.028Z,99067.09
2018-03-15T07:13:49.924Z,99069.83
2018-03-15T07:16:19.274Z,99068.03
2018-03-15T07:18:48.273Z,99070.95
2018-03-15T07:21:17.146Z,99061.14
2018-03-15T07:23:46.327Z,99055.00
2018-03-15T07:26:15.833Z,99047.78
2018-03-15T07:28:45.294Z,99043.13
2018-03-15T07:31:14.965Z,99032.18
2018-03-15T07:33:44.257Z,99034.10
2018-03-15T07:36:13.471Z,99027.02
2018-03-15T07:38:42.297Z,99030.02
2018-03-15T07:41:11.848Z,99033.25
2018-03-15T07:43:41.064Z,99026.48
2018-03-15T07:46:10.103Z,99016.89
2018-03-15T07:48:39.193Z,99010.85
2018-03-15T07:51:08.210Z,98998.38
2018-03-15T07:53:37.312Z,98993.59
2018-03-15T07:56:06.618Z,98992.25
2018-03-15T07:58:35.656Z,98991.88
2018-03-15T08:01:04.673Z,98980.24
2018-03-15T08:03:34.092Z,98976.19
2018-03-15T08:06:03.133Z,98974.24
2018-03-15T08:08:32.203Z,98966.45
2018-03-15T08:11:01.196Z,98961.75
2018-03-15T08:13:30.194Z,98961.95
2018-03-15T08:15:59.188Z,98958.16
2018-03-15T08:18:28.247Z,98956.34
2018-03-15T08:20:57.822Z,98957.92
2018-03-15T08:23:26.832Z,98953.02
2018-03-15T08:25:55.948Z,98939.44
2018-03-15T08:28:25.488Z,98938.00
2018-03-15T08:30:54.795Z,98935.13
2018-03-15T08:33:24.048Z,98929.38
2018-03-15T08:35:53.200Z,98928.61
2018-03-15T08:38:23.238Z,98927.70
2018-03-15T08:40:52.179Z,98914.20
2018-03-15T08:43:21.156Z,98912.05
2018-03-15T08:45:50.616Z,98906.08
2018-03-15T08:48:19.697Z,98895.02
2018-03-15T08:50:49.295Z,98894.59
2018-03-15T08:53:18.642Z,98893.91
2018-03-15T08:55:48.176Z,98882.20
2018-03-15T08:58:17.289Z,98880.78
2018-03-15T09:00:46.689Z,98874.13
2018-03-15T09:03:16.235Z,98872.93
2018-03-15T09:05:45.368Z,98866.77
2018-03-15T09:08:14.848Z,98858.34
2018-03-15T09:10:44.274Z,98858.52
2018-03-15T09:13:13.107Z,98858.19
2018-03-15T09:15:42.499Z,98857.66
2018-03-15T09:18:11.398Z,98849.67
2018-03-15T09:20:40.789Z,98840.26
2018-03-15T09:23:09.923Z,98834.99
2018-03-15T09:25:38.846Z,98835.99
2018-03-15T09:28:08.140Z,98837.88
2018-03-15T09:30:37.212Z,98830.89
2018-03-15T09:33:07.384Z,98834.27
2018-03-15T09:35:36.364Z,98823.19
2018-03-15T09:38:05.438Z,98814.80
2018-03-15T09:40:34.994Z,98810.82
2018-03-15T09:43:04.736Z,98811.65
2018-03-15T09:45:33.787Z,98811.75
2018-03-15T09:48:03.039Z,98812.80
2018-03-15T09:50:32.071Z,98804.53
2018-03-15T09:53:01.327Z,98815.25
2018-03-15T09:55:30.653Z,98810.50
2018-03-15T09:57:59.977Z,98814.14
2018-03-15T10:00:29.714Z,98810.18
2018-03-15T10:02:59.427Z,98804.28
2018-03-15T10:05:29.060Z,98800.62
2018-03-15T10:07:59.287Z,98800.80
2018-03-15T10:10:28.470Z,98798.67
2018-03-15T10:12:58.508Z,98799.47
2018-03-15T10:15:27.901Z,98800.30
2018-03-15T10:17:57.798Z,98802.02
2018-03-15T10:20:26.653Z,98793.31
2018-03-15T10:22:56.374Z,98793.39
2018-03-15T10:25:26.397Z,98791.05
2018-03-15T10:27:55.382Z,98788.09
2018-03-15T10:30:24.416Z,98792.26
2018-03-15T10:32:59.370Z,98787.08
2018-03-15T10:35:29.549Z,98785.41
2018-03-15T10:37:59.611Z,98779.73
2018-03-15T10:40:29.077Z,98777.22
2018-03-15T10:42:59.534Z,98776.70
2018-03-15T10:45:31.166Z,98769.88
2018-03-15T10:48:02.779Z,98766.14
2018-03-15T10:50:32.278Z,98763.12
2018-03-15T10:53:01.011Z,98766.30
2018-03-15T10:55:30.243Z,98765.38
2018-03-15T10:57:59.554Z,98766.02
2018-03-15T11:03:34.363Z,98772.45
2018-03-15T11:06:08.939Z,98770.95
2018-03-15T11:08:38.205Z,98769.27
2018-03-15T11:11:07.589Z,98769.11
2018-03-15T11:13:36.806Z,98766.45
2018-03-15T11:16:06.043Z,98764.19
2018-03-15T11:18:36.420Z,98772.56
2018-03-15T11:21:05.744Z,98769.69
2018-03-15T11:23:34.834Z,98763.63
2018-03-15T11:26:04.272Z,98760.84
2018-03-15T11:28:33.442Z,98758.07
2018-03-15T11:31:02.650Z,98760.37
2018-03-15T11:33:31.768Z,98762.30
2018-03-15T11:36:01.104Z,98766.13
2018-03-15T11:38:30.357Z,98765.89
2018-03-15T11:40:59.568Z,98766.94
2018-03-15T11:43:28.918Z,98765.27
2018-03-15T11:45:58.276Z,98765.39
2018-03-15T11:48:27.292Z,98763.13
2018-03-15T11:50:56.788Z,98765.00
2018-03-15T11:53:25.785Z,98766.39
2018-03-15T11:55:54.972Z,98774.61
2018-03-15T11:58:24.151Z,98771.10
2018-03-15T12:00:53.510Z,98772.72
2018-03-15T12:03:22.714Z,98780.15
2018-03-15T12:05:51.866Z,98783.50
2018-03-15T12:08:21.252Z,98784.19
2018-03-15T12:10:50.522Z,98775.42
2018-03-15T12:13:19.558Z,98783.47
2018-03-15T12:15:49.023Z,98780.85
2018-03-15T12:18:18.130Z,98785.42
2018-03-15T12:20:47.419Z,98786.06
2018-03-15T12:23:16.555Z,98785.11
2018-03-15T12:25:45.757Z,98783.48
2018-03-15T12:28:15.259Z,98790.13
2018-03-15T12:30:45.300Z,98790.89
2018-03-15T12:33:14.544Z,98791.14
2018-03-15T12:35:43.861Z,98790.77
2018-03-15T12:38:13.462Z,98794.81
2018-03-15T12:40:42.281Z,98795.43
2018-03-15T12:43:11.816Z,98800.38
2018-03-15T12:45:40.920Z,98805.25
2018-03-15T12:48:10.001Z,98805.89
2018-03-15T12:50:39.196Z,98806.88
2018-03-15T12:53:08.470Z,98805.69
2018-03-15T12:55:37.824Z,98808.28
2018-03-15T12:58:06.829Z,98809.86
2018-03-15T13:00:36.209Z,98814.63
2018-03-15T13:03:05.530Z,98817.70
2018-03-15T13:05:34.694Z,98824.95
2018-03-15T13:08:04.493Z,98829.88
2018-03-15T13:10:33.504Z,98827.98
2018-03-15T13:13:02.655Z,98830.70
2018-03-15T13:15:31.708Z,98839.28
2018-03-15T13:18:00.926Z,98839.86
2018-03-15T13:20:30.016Z,98842.85
2018-03-15T13:22:59.232Z,98845.77
2018-03-15T13:25:28.896Z,98844.50
2018-03-15T13:27:58.272Z,98851.48
2018-03-15T13:30:27.250Z,98853.06
2018-03-15T13:32:56.788Z,98861.12
2018-03-15T13:35:25.787Z,98854.19
2018-03-15T13:37:55.175Z,98868.62
2018-03-15T13:40:24.281Z,98869.45
2018-03-15T13:42:53.762Z,98870.53
2018-03-15T13:45:22.954Z,98872.77
2018-03-15T13:47:52.160Z,98876.05
2018-03-15T13:50:21.554Z,98881.79
2018-03-15T13:52:50.969Z,98887.08
2018-03-15T13:55:20.329Z,98885.48
2018-03-15T13:57:49.241Z,98897.52
2018-03-15T14:00:18.501Z,98892.43
2018-03-15T14:02:47.945Z,98899.92
2018-03-15T14:05:17.405Z,98903.25
2018-03-15T14:07:46.753Z,98899.00
2018-03-15T14:10:16.416Z,98901.42
2018-03-15T14:12:45.802Z,98901.64
2018-03-15T14:15:15.222Z,98898.98
2018-03-15T14:17:44.359Z,98908.02
2018-03-15T14:20:13.587Z,98907.54
2018-03-15T14:22:42.429Z,98905.27
2018-03-15T14:25:11.384Z,98907.11
2018-03-15T14:27:40.528Z,98911.47
2018-03-15T14:30:09.845Z,98917.91
2018-03-15T14:32:39.262Z,98924.25
2018-03-15T14:35:08.959Z,98925.05
2018-03-15T14:37:38.287Z,98924.78
2018-03-15T14:40:07.677Z,98932.34
2018-03-15T14:42:36.992Z,98934.75
2018-03-15T14:45:06.313Z,98932.30
2018-03-15T14:47:35.442Z,98938.67
2018-03-15T14:50:04.526Z,98941.51
2018-03-15T14:52:33.965Z,98941.51
2018-03-15T14:55:03.008Z,98953.38
2018-03-15T14:57:32.310Z,98951.70
2018-03-15T15:00:01.225Z,98950.24
2018-03-15T15:02:30.320Z,98956.02
2018-03-15T15:04:59.813Z,98967.20
2018-03-15T15:07:28.945Z,98970.70
2018-03-15T15:09:58.063Z,98978.00
2018-03-15T15:12:27.550Z,98985.06
2018-03-15T15:14:56.769Z,98981.95
2018-03-15T15:17:25.958Z,98987.02
2018-03-15T15:19:55.283Z,98991.25
2018-03-15T15:22:24.404Z,98994.67
2018-03-15T15:24:53.765Z,98997.73
2018-03-15T15:27:23.150Z,98998.23
2018-03-15T15:29:52.286Z,99005.97
2018-03-15T15:32:21.255Z,99006.49
2018-03-15T15:34:50.850Z,99009.84
2018-03-15T15:37:20.207Z,99009.55
2018-03-15T15:39:49.643Z,99019.20
2018-03-15T15:42:18.909Z,99023.25
2018-03-15T15:44:47.945Z,99025.90
2018-03-15T15:47:17.031Z,99024.22
2018-03-15T15:49:46.736Z,99031.63
2018-03-15T15:52:15.922Z,99029.62
2018-03-15T15:54:45.712Z,99029.27
2018-03-15T15:57:15.000Z,99040.16
2018-03-15T15:59:44.241Z,99037.70
2018-03-15T16:02:13.483Z,99039.33
2018-03-15T16:04:42.409Z,99043.19
2018-03-15T16:07:11.691Z,99038.02
2018-03-15T16:09:41.082Z,99045.70
2018-03-15T16:12:10.441Z,99047.58
2018-03-15T16:14:40.112Z,99053.60
2018-03-15T16:19:25.675Z,99054.07
2018-03-15T16:24:19.357Z,99065.38
2018-03-15T16:29:18.002Z,99057.98
2018-03-15T16:31:47.269Z,99067.66
2018-03-15T16:34:16.473Z,99066.54
2018-03-15T16:36:46.280Z,99072.94
2018-03-15T16:39:15.281Z,99072.88
2018-03-15T16:41:44.376Z,99073.02
2018-03-15T16:44:13.937Z,99079.61
2018-03-15T16:46:43.145Z,99072.16
2018-03-15T16:49:12.469Z,99076.20
2018-03-15T16:51:41.860Z,99079.69
2018-03-15T16:54:10.969Z,99077.20
2018-03-15T16:56:41.999Z,99074.20
2018-03-15T16:59:11.552Z,99074.10
2018-03-15T17:01:40.929Z,99072.10
2018-03-15T17:04:10.054Z,99071.16
2018-03-15T17:06:39.140Z,99070.09
2018-03-15T17:09:08.780Z,99072.03
2018-03-15T17:11:37.931Z,99068.19
2018-03-15T17:16:23.985Z,99076.38
2018-03-15T17:18:53.047Z,99079.43
2018-03-15T17:21:22.720Z,99088.50
2018-03-15T17:23:52.164Z,99090.42
2018-03-15T17:26:21.978Z,99092.35
2018-03-15T17:28:51.999Z,99098.06
2018-03-15T17:31:21.934Z,99093.13
2018-03-15T17:33:52.203Z,99092.10
2018-03-15T17:36:22.179Z,99096.13
2018-03-15T17:38:51.516Z,99097.81
2018-03-15T17:41:22.153Z,99098.48
2018-03-15T17:43:51.905Z,99094.64
2018-03-15T17:46:21.268Z,99102.92
2018-03-15T17:48:50.864Z,99094.77
2018-03-15T17:51:20.826Z,99094.41
2018-03-15T17:53:49.993Z,99100.11
2018-03-15T17:56:19.648Z,99096.80
2018-03-15T17:58:48.866Z,99103.96
2018-03-15T18:01:18.034Z,99100.04
2018-03-15T18:03:47.413Z,99097.10
2018-03-15T18:06:16.744Z,99097.46
2018-03-15T18:08:46.394Z,99093.55
2018-03-15T18:11:15.948Z,99091.44
2018-03-15T18:13:45.103Z,99090.06
2018-03-15T18:16:14.095Z,99085.83
2018-03-15T18:18:43.255Z,99092.21
2018-03-15T18:21:12.634Z,99087.14
2018-03-15T18:23:41.709Z,99087.50
2018-03-15T18:26:11.070Z,99087.73
2018-03-15T18:28:40.412Z,99086.08
2018-03-15T18:31:09.791Z,99089.28
2018-03-15T18:33:39.196Z,99089.02
2018-03-15T18:36:08.441Z,99088.16
2018-03-15T18:38:37.993Z,99084.38
2018-03-15T18:41:07.391Z,99085.50
2018-03-15T18:43:36.529Z,99086.44
2018-03-15T18:46:06.716Z,99082.72
2018-03-15T18:48:35.864Z,99085.87
2018-03-15T18:51:05.174Z,99078.41
2018-03-15T18:53:34.490Z,99073.13
2018-03-15T18:56:04.047Z,99072.52
2018-03-15T18:58:33.113Z,99074.23
2018-03-15T19:01:02.076Z,99070.64
2018-03-15T19:03:32.220Z,99065.30
2018-03-15T19:06:01.358Z,99072.80
2018-03-15T19:08:31.888Z,99074.57
2018-03-15T19:11:00.916Z,99071.06
2018-03-15T19:13:29.805Z,99070.25
2018-03-15T19:15:58.967Z,99073.09
2018-03-15T19:18:28.405Z,99073.58
2018-03-15T19:20:57.827Z,99074.80
2018-03-15T19:23:27.366Z,99071.86
2018-03-15T19:25:56.398Z,99074.33
2018-03-15T19:28:25.646Z,99074.20
2018-03-15T19:30:54.774Z,99070.72
2018-03-15T19:33:24.333Z,99073.19
2018-03-15T19:35:53.906Z,99071.38
2018-03-15T19:38:23.129Z,99068.14
2018-03-15T19:40:52.283Z,99062.11
2018-03-15T19:43:21.424Z,99063.23
2018-03-15T19:45:50.795Z,99057.53
2018-03-15T19:48:20.041Z,99061.64
2018-03-15T19:50:49.290Z,99059.21
2018-03-15T19:53:18.566Z,99053.58
2018-03-15T19:55:48.052Z,99052.23
2018-03-15T19:58:17.495Z,99054.94
2018-03-15T20:00:46.669Z,99048.22
2018-03-15T20:03:15.616Z,99051.22
2018-03-15T20:05:44.466Z,99041.27
2018-03-15T20:08:14.080Z,99042.94
2018-03-15T20:10:43.520Z,99040.98
2018-03-15T20:13:12.856Z,99039.66
2018-03-15T20:15:50.171Z,99039.75
2018-03-15T20:18:19.369Z,99040.18
2018-03-15T20:20:48.375Z,99035.97
2018-03-15T20:23:23.193Z,99037.70
2018-03-15T20:25:52.373Z,99038.31
2018-03-15T20:28:27.514Z,99034.27
2018-03-15T20:30:56.657Z,99023.72
2018-03-15T20:33:31.514Z,99028.28
2018-03-15T20:36:00.592Z,99026.01
2018-03-15T20:38:29.767Z,99026.72
2018-03-15T20:41:04.508Z,99021.69
2018-03-15T20:43:35.038Z,99014.16
2018-03-15T20:46:09.835Z,99013.00
2018-03-15T20:48:44.491Z,99016.38
2018-03-15T20:51:13.821Z,99002.95
2018-03-15T20:53:43.832Z,99003.90
2018-03-15T20:56:13.243Z,99004.32
2018-03-15T20:58:42.355Z,98999.64
2018-03-15T21:01:11.810Z,98998.76
2018-03-15T21:03:41.118Z,98991.39
2018-03-15T21:06:10.320Z,98992.91
2018-03-15T21:08:39.722Z,98988.70
2018-03-15T21:11:08.863Z,98984.81
2018-03-15T21:13:38.053Z,98979.53
2018-03-15T21:16:06.795Z,98978.17
2018-03-15T21:18:36.188Z,98977.22
2018-03-15T21:21:05.232Z,98980.00
2018-03-15T21:26:29.259Z,98981.10
2018-03-15T21:28:58.606Z,98982.36
2018-03-15T21:31:27.910Z,98979.37
2018-03-15T21:33:57.189Z,98978.41
2018-03-15T21:36:26.245Z,98979.42
2018-03-15T21:38:55.672Z,98987.77
2018-03-15T21:41:24.935Z,98987.72
2018-03-15T21:43:54.289Z,98979.23
2018-03-15T21:46:23.699Z,98984.14
2018-03-15T21:48:52.937Z,98981.86
2018-03-15T21:51:22.060Z,98986.06
2018-03-15T21:53:51.267Z,98980.13
2018-03-15T21:56:20.655Z,98967.73
2018-03-15T21:58:49.792Z,98967.19
2018-03-15T22:01:19.067Z,98972.52
2018-03-15T22:03:48.284Z,98963.83
2018-03-15T22:06:17.673Z,98969.58
2018-03-15T22:08:46.857Z,98960.95
2018-03-15T22:11:15.975Z,98959.27
2018-03-15T22:13:45.201Z,98955.27
2018-03-15T22:16:14.479Z,98950.78
2018-03-15T22:18:44.734Z,98950.53
2018-03-15T22:21:14.168Z,98946.84
2018-03-15T22:23:44.511Z,98939.41
2018-03-15T22:26:13.734Z,98941.37
2018-03-15T22:28:42.934Z,98936.64
2018-03-15T22:31:12.546Z,98941.96
2018-03-15T22:33:42.008Z,98944.84
2018-03-15T22:36:11.193Z,98950.48
2018-03-15T22:38:40.733Z,98948.80
2018-03-15T22:41:10.031Z,98958.42
2018-03-15T22:43:39.172Z,98965.54
2018-03-15T22:46:08.818Z,98966.86
2018-03-15T22:48:38.296Z,98962.55
2018-03-15T22:51:07.263Z,98963.75
2018-03-15T22:53:36.968Z,98959.71
2018-03-15T22:56:06.263Z,98956.80
2018-03-15T22:58:35.441Z,98960.75
2018-03-15T23:01:05.260Z,98967.44
2018-03-15T23:03:34.330Z,98967.08
2018-03-15T23:06:03.753Z,98966.66
2018-03-15T23:08:33.118Z,98964.08
2018-03-15T23:11:01.943Z,98964.87
2018-03-15T23:13:31.301Z,98962.06
2018-03-15T23:16:00.389Z,98969.77
2018-03-15T23:18:29.534Z,98974.03
2018-03-15T23:20:59.375Z,98979.05
2018-03-15T23:23:28.787Z,98978.74
2018-03-15T23:25:58.169Z,98981.62
2018-03-15T23:28:27.449Z,98987.95
2018-03-15T23:30:56.808Z,98986.93
2018-03-15T23:33:26.014Z,98993.93
2018-03-15T23:35:55.421Z,98994.47
2018-03-15T23:38:24.912Z,98995.05
2018-03-15T23:40:54.170Z,98994.31
2018-03-15T23:43:23.452Z,98999.99
2018-03-15T23:45:52.922Z,99005.80
2018-03-15T23:48:22.402Z,99009.27
2018-03-15T23:50:51.771Z,99014.48
2018-03-15T23:53:21.204Z,99011.14
2018-03-15T23:55:50.453Z,99020.67
2018-03-15T23:58:19.786Z,99020.04
